createdAt,value
2023-05-08T00:01:16.458Z,100738.87
2023-05-08T00:04:20.787Z,100744.09
2023-05-08T00:07:23.487Z,100735.97
2023-05-08T00:10:27.035Z,100740.25
2023-05-08T00:13:29.724Z,100733.28
2023-05-08T00:16:32.787Z,100743.38
2023-05-08T00:19:35.754Z,100746.59
2023-05-08T00:22:38.874Z,100745.47
2023-05-08T00:25:41.600Z,100748.38
2023-05-08T00:28:44.800Z,100746.91
2023-05-08T00:31:47.597Z,100737.12
2023-05-08T00:34:50.850Z,100741.16
2023-05-08T00:37:53.493Z,100737.28
2023-05-08T00:40:56.542Z,100740.66
2023-05-08T00:43:59.242Z,100748.97
2023-05-08T00:47:02.501Z,100743.84
2023-05-08T00:50:05.664Z,100753.16
2023-05-08T00:53:08.655Z,100757.03
2023-05-08T00:56:15.863Z,100748.09
2023-05-08T00:59:21.357Z,100763.25
2023-05-08T01:02:24.524Z,100763.53
2023-05-08T01:05:29.933Z,100769.75
2023-05-08T01:08:33.251Z,100774.06
2023-05-08T01:12:15.413Z,100772.06
2023-05-08T01:15:38.612Z,100775.50
2023-05-08T01:18:51.760Z,100781.28
2023-05-08T01:22:01.177Z,100795.56
2023-05-08T01:25:19.486Z,100796.34
2023-05-08T01:28:50.038Z,100792.28
2023-05-08T01:32:17.687Z,100799.41
2023-05-08T01:35:20.398Z,100784.34
2023-05-08T01:38:33.132Z,100791.16
2023-05-08T01:41:37.773Z,100775.34
2023-05-08T01:44:47.633Z,100781.81
2023-05-08T01:48:00.536Z,100776.41
2023-05-08T01:51:12.157Z,100788.66
2023-05-08T01:54:19.964Z,100797.00
2023-05-08T01:57:26.986Z,100788.91
2023-05-08T02:00:29.829Z,100775.00
2023-05-08T02:03:36.363Z,100797.22
2023-05-08T02:06:39.691Z,100792.53
2023-05-08T02:09:44.605Z,100804.34
2023-05-08T02:12:48.718Z,100801.84
2023-05-08T02:15:54.845Z,100796.06
2023-05-08T02:19:00.780Z,100802.31
2023-05-08T02:22:05.755Z,100798.22
2023-05-08T02:25:09.805Z,100813.88
2023-05-08T02:28:12.897Z,100807.69
2023-05-08T02:31:17.386Z,100814.47
2023-05-08T02:34:23.465Z,100812.16
2023-05-08T02:37:27.577Z,100811.28
2023-05-08T02:40:32.661Z,100811.56
2023-05-08T02:43:35.858Z,100806.03
2023-05-08T02:46:51.755Z,100808.44
2023-05-08T02:50:08.624Z,100819.16
2023-05-08T02:53:20.662Z,100816.59
2023-05-08T02:56:32.786Z,100824.44
2023-05-08T02:59:42.553Z,100825.44
2023-05-08T03:02:53.197Z,100828.44
2023-05-08T03:05:59.997Z,100830.03
2023-05-08T03:09:04.001Z,100834.34
2023-05-08T03:12:13.077Z,100828.56
2023-05-08T03:15:21.610Z,100828.94
2023-05-08T03:18:31.181Z,100837.03
2023-05-08T03:21:37.436Z,100829.66
2023-05-08T03:24:44.309Z,100829.31
2023-05-08T03:27:49.213Z,100826.47
2023-05-08T03:30:53.328Z,100831.25
2023-05-08T03:33:56.730Z,100834.69
2023-05-08T03:36:59.874Z,100837.00
2023-05-08T03:40:02.723Z,100838.38
2023-05-08T03:43:07.995Z,100837.84
2023-05-08T03:46:11.425Z,100840.78
2023-05-08T03:49:15.262Z,100839.81
2023-05-08T03:52:17.919Z,100851.97
2023-05-08T03:55:21.680Z,100847.22
2023-05-08T03:58:36.911Z,100849.19
2023-05-08T04:01:48.921Z,100852.75
2023-05-08T04:05:21.122Z,100840.13
2023-05-08T04:08:32.534Z,100854.81
2023-05-08T04:11:44.329Z,100860.41
2023-05-08T04:14:53.585Z,100863.03
2023-05-08T04:18:20.855Z,100857.84
2023-05-08T04:21:25.551Z,100857.16
2023-05-08T04:24:32.926Z,100860.22
2023-05-08T04:27:36.644Z,100864.03
2023-05-08T04:30:40.858Z,100871.84
2023-05-08T04:33:45.452Z,100874.66
2023-05-08T04:36:48.765Z,100880.09
2023-05-08T04:39:52.175Z,100882.59
2023-05-08T04:42:56.046Z,100878.19
2023-05-08T04:45:59.331Z,100891.22
2023-05-08T04:49:02.626Z,100888.66
2023-05-08T04:52:06.961Z,100878.16
2023-05-08T04:55:10.768Z,100887.84
2023-05-08T04:58:14.102Z,100874.69
2023-05-08T05:01:17.495Z,100895.75
2023-05-08T05:04:20.249Z,100898.63
2023-05-08T05:07:24.272Z,100905.44
2023-05-08T05:10:27.298Z,100902.78
2023-05-08T05:13:30.472Z,100909.53
2023-05-08T05:16:33.752Z,100909.53
2023-05-08T05:19:36.966Z,100910.75
2023-05-08T05:22:40.312Z,100927.59
2023-05-08T05:25:44.040Z,100919.66
2023-05-08T05:28:46.799Z,100908.56
2023-05-08T05:31:50.061Z,100906.47
2023-05-08T05:34:53.969Z,100906.19
2023-05-08T05:37:57.636Z,100920.78
2023-05-08T05:41:01.065Z,100924.84
2023-05-08T05:44:04.551Z,100920.50
2023-05-08T05:47:10.220Z,100931.16
2023-05-08T05:50:14.609Z,100926.31
2023-05-08T05:53:17.549Z,100925.97
2023-05-08T05:56:21.665Z,100933.72
2023-05-08T05:59:24.628Z,100932.03
2023-05-08T06:02:27.900Z,100935.56
2023-05-08T06:05:31.542Z,100935.47
2023-05-08T06:08:34.675Z,100938.28
2023-05-08T06:11:37.755Z,100933.44
2023-05-08T06:14:41.514Z,100929.03
2023-05-08T06:17:45.778Z,100939.53
2023-05-08T06:20:48.648Z,100941.84
2023-05-08T06:23:51.621Z,100937.09
2023-05-08T06:26:54.288Z,100962.66
2023-05-08T06:29:57.562Z,100949.78
2023-05-08T06:33:00.517Z,100951.09
2023-05-08T06:36:06.278Z,100966.75
2023-05-08T06:39:09.223Z,100961.09
2023-05-08T06:42:12.777Z,100957.81
2023-05-08T06:45:16.225Z,100971.53
2023-05-08T06:48:19.362Z,100969.94
2023-05-08T06:51:23.337Z,100963.34
2023-05-08T06:54:26.746Z,100979.97
2023-05-08T06:57:30.460Z,100960.47
2023-05-08T07:00:33.689Z,100967.44
2023-05-08T07:03:37.144Z,100974.97
2023-05-08T07:06:40.077Z,100968.50
2023-05-08T07:09:42.796Z,100975.47
2023-05-08T07:12:46.120Z,100973.38
2023-05-08T07:15:49.044Z,100974.28
2023-05-08T07:18:52.708Z,100966.50
2023-05-08T07:21:55.738Z,100974.91
2023-05-08T07:24:58.836Z,100979.03
2023-05-08T07:28:01.656Z,100958.87
2023-05-08T07:31:07.314Z,100969.84
2023-05-08T07:34:10.204Z,100972.56
2023-05-08T07:37:13.359Z,100960.41
2023-05-08T07:40:16.071Z,100973.31
2023-05-08T07:43:19.240Z,100970.41
2023-05-08T07:46:22.631Z,100961.75
2023-05-08T07:49:25.937Z,100980.63
2023-05-08T07:52:28.601Z,100971.09
2023-05-08T07:55:31.987Z,100971.34
2023-05-08T07:58:35.178Z,100954.25
2023-05-08T08:01:38.265Z,100959.78
2023-05-08T08:04:41.377Z,100962.66
2023-05-08T08:07:44.812Z,100970.53
2023-05-08T08:10:47.759Z,100966.75
2023-05-08T08:13:50.835Z,100968.75
2023-05-08T08:16:53.781Z,100963.38
2023-05-08T08:19:57.374Z,100961.38
2023-05-08T08:23:00.385Z,100964.25
2023-05-08T08:26:03.096Z,100961.84
2023-05-08T08:29:06.164Z,100962.31
2023-05-08T08:32:08.817Z,100973.47
2023-05-08T08:35:12.165Z,100975.38
2023-05-08T08:38:15.772Z,100981.41
2023-05-08T08:41:18.796Z,100968.72
2023-05-08T08:44:21.641Z,100968.47
2023-05-08T08:47:34.922Z,100971.88
2023-05-08T08:50:43.114Z,100977.53
2023-05-08T08:53:50.219Z,100979.72
2023-05-08T08:56:54.311Z,100974.34
2023-05-08T08:59:59.696Z,100975.69
2023-05-08T09:03:04.334Z,100966.16
2023-05-08T09:06:07.920Z,100981.34
2023-05-08T09:09:12.742Z,100978.06
2023-05-08T09:12:15.839Z,100970.06
2023-05-08T09:15:18.941Z,100977.25
2023-05-08T09:18:22.191Z,100970.13
2023-05-08T09:21:25.102Z,100971.69
2023-05-08T09:24:53.612Z,100974.09
2023-05-08T09:28:15.949Z,100981.84
2023-05-08T09:31:19.004Z,100970.88
2023-05-08T09:34:30.260Z,100961.44
2023-05-08T09:37:34.004Z,100972.56
2023-05-08T09:40:36.723Z,100959.47
2023-05-08T09:43:40.026Z,100955.53
2023-05-08T09:46:42.800Z,100958.69
2023-05-08T09:50:07.069Z,100957.09
2023-05-08T09:53:10.040Z,100953.84
2023-05-08T09:56:14.327Z,100960.19
2023-05-08T09:59:28.711Z,100966.50
2023-05-08T10:02:33.071Z,100963.06
2023-05-08T10:05:36.614Z,100955.09
2023-05-08T10:08:39.310Z,100967.25
2023-05-08T10:11:52.098Z,100956.50
2023-05-08T10:14:55.720Z,100957.34
2023-05-08T10:18:06.721Z,100969.88
2023-05-08T10:21:09.925Z,100959.37
2023-05-08T10:24:18.560Z,100962.94
2023-05-08T10:27:30.547Z,100959.09
2023-05-08T10:30:38.351Z,100963.75
2023-05-08T10:33:41.828Z,100960.22
2023-05-08T10:36:46.245Z,100964.56
2023-05-08T10:39:50.473Z,100965.72
2023-05-08T10:42:53.695Z,100967.31
2023-05-08T10:45:58.583Z,100962.25
2023-05-08T10:49:22.488Z,100955.75
2023-05-08T10:52:34.096Z,100960.56
2023-05-08T10:55:39.075Z,100956.84
2023-05-08T10:58:56.471Z,100941.06
2023-05-08T11:02:06.155Z,100970.34
2023-05-08T11:05:16.802Z,100949.59
2023-05-08T11:08:24.806Z,100941.94
2023-05-08T11:11:34.767Z,100954.16
2023-05-08T11:14:42.374Z,100951.97
2023-05-08T11:17:54.357Z,100962.69
2023-05-08T11:21:06.247Z,100950.88
2023-05-08T11:24:11.915Z,100967.28
2023-05-08T11:27:16.013Z,100961.25
2023-05-08T11:30:23.739Z,100959.69
2023-05-08T11:33:31.881Z,100941.56
2023-05-08T11:36:36.944Z,100951.09
2023-05-08T11:39:40.028Z,100947.06
2023-05-08T11:42:42.863Z,100946.13
2023-05-08T11:45:46.818Z,100943.03
2023-05-08T11:48:49.862Z,100942.25
2023-05-08T11:51:58.279Z,100932.63
2023-05-08T11:55:05.869Z,100941.28
2023-05-08T11:58:12.742Z,100926.88
2023-05-08T12:01:21.417Z,100933.44
2023-05-08T12:04:24.730Z,100932.81
2023-05-08T12:07:27.908Z,100942.88
2023-05-08T12:10:31.689Z,100929.22
2023-05-08T12:13:34.390Z,100938.66
2023-05-08T12:16:38.969Z,100942.06
2023-05-08T12:19:41.727Z,100945.37
2023-05-08T12:22:52.685Z,100945.13
2023-05-08T12:25:58.802Z,100949.97
2023-05-08T12:29:01.894Z,100939.16
2023-05-08T12:32:13.618Z,100945.72
2023-05-08T12:35:17.042Z,100937.03
2023-05-08T12:38:19.684Z,100948.34
2023-05-08T12:41:26.446Z,100951.34
2023-05-08T12:44:30.427Z,100965.53
2023-05-08T12:47:33.425Z,100949.06
2023-05-08T12:50:38.561Z,100941.84
2023-05-08T12:53:41.643Z,100949.72
2023-05-08T12:56:44.812Z,100941.34
2023-05-08T12:59:47.846Z,100941.38
2023-05-08T13:02:55.104Z,100931.84
2023-05-08T13:05:58.957Z,100939.31
2023-05-08T13:09:01.628Z,100944.03
2023-05-08T13:12:06.817Z,100942.94
2023-05-08T13:15:10.926Z,100935.22
2023-05-08T13:18:15.057Z,100934.00
2023-05-08T13:21:17.974Z,100945.28
2023-05-08T13:24:20.994Z,100938.00
2023-05-08T13:27:23.825Z,100941.06
2023-05-08T13:30:27.067Z,100937.19
2023-05-08T13:33:29.628Z,100933.59
2023-05-08T13:36:32.689Z,100939.78
2023-05-08T13:39:37.445Z,100935.41
2023-05-08T13:42:40.519Z,100938.69
2023-05-08T13:45:43.087Z,100952.03
2023-05-08T13:48:46.126Z,100945.84
2023-05-08T13:51:52.031Z,100947.34
2023-05-08T13:54:59.602Z,100946.50
2023-05-08T13:58:02.522Z,100946.47
2023-05-08T14:01:17.550Z,100931.75
2023-05-08T14:04:28.563Z,100941.03
2023-05-08T14:07:31.555Z,100943.94
2023-05-08T14:10:36.781Z,100936.78
2023-05-08T14:13:39.431Z,100933.53
2023-05-08T14:16:42.473Z,100937.56
2023-05-08T14:19:46.249Z,100932.00
2023-05-08T14:22:49.705Z,100927.16
2023-05-08T14:25:52.303Z,100939.47
2023-05-08T14:28:55.293Z,100931.66
2023-05-08T14:31:58.072Z,100932.72
2023-05-08T14:35:01.079Z,100942.16
2023-05-08T14:38:04.553Z,100930.59
2023-05-08T14:41:07.539Z,100939.22
2023-05-08T14:44:10.373Z,100938.97
2023-05-08T14:47:13.252Z,100949.06
2023-05-08T14:50:16.030Z,100940.44
2023-05-08T14:53:19.321Z,100943.31
2023-05-08T14:56:24.651Z,100952.91
2023-05-08T14:59:28.019Z,100954.28
2023-05-08T15:02:30.771Z,100948.63
2023-05-08T15:05:33.848Z,100947.00
2023-05-08T15:08:46.335Z,100943.13
2023-05-08T15:11:49.330Z,100939.03
2023-05-08T15:14:52.178Z,100937.19
2023-05-08T15:17:55.174Z,100955.37
2023-05-08T15:20:59.645Z,100950.00
2023-05-08T15:24:02.670Z,100952.72
2023-05-08T15:27:06.019Z,100961.34
2023-05-08T15:30:09.796Z,100956.81
2023-05-08T15:33:13.035Z,100960.03
2023-05-08T15:36:16.044Z,100964.62
2023-05-08T15:39:18.863Z,100961.47
2023-05-08T15:42:22.093Z,100962.53
2023-05-08T15:45:24.694Z,100963.41
2023-05-08T15:48:27.783Z,100960.81
2023-05-08T15:51:30.826Z,100954.47
2023-05-08T15:54:34.340Z,100957.59
2023-05-08T15:57:37.221Z,100966.03
2023-05-08T16:00:44.727Z,100964.44
2023-05-08T16:03:48.452Z,100961.19
2023-05-08T16:06:51.117Z,100971.53
2023-05-08T16:09:54.058Z,100952.41
2023-05-08T16:12:56.830Z,100958.25
2023-05-08T16:16:06.366Z,100971.81
2023-05-08T16:19:09.295Z,100949.88
2023-05-08T16:22:12.247Z,100960.19
2023-05-08T16:25:15.152Z,100953.34
2023-05-08T16:28:18.270Z,100960.91
2023-05-08T16:31:20.981Z,100963.13
2023-05-08T16:34:24.104Z,100960.59
2023-05-08T16:37:26.719Z,100958.31
2023-05-08T16:40:29.599Z,100962.63
2023-05-08T16:43:32.539Z,100970.94
2023-05-08T16:46:35.486Z,100963.84
2023-05-08T16:49:38.467Z,100974.53
2023-05-08T16:52:41.654Z,100980.44
2023-05-08T16:55:44.464Z,100974.50
2023-05-08T16:58:47.652Z,100977.28
2023-05-08T17:01:50.352Z,100993.50
2023-05-08T17:04:53.539Z,101005.69
2023-05-08T17:07:56.397Z,100997.00
2023-05-08T17:10:59.652Z,101006.47
2023-05-08T17:14:02.431Z,100999.72
2023-05-08T17:17:06.241Z,101008.78
2023-05-08T17:20:09.743Z,101008.69
2023-05-08T17:23:12.905Z,101018.88
2023-05-08T17:26:15.840Z,101015.69
2023-05-08T17:29:19.493Z,101009.47
2023-05-08T17:32:22.708Z,101012.12
2023-05-08T17:35:25.808Z,101023.50
2023-05-08T17:38:28.458Z,101022.56
2023-05-08T17:41:31.543Z,101025.69
2023-05-08T17:44:34.309Z,101028.91
2023-05-08T17:47:38.441Z,101036.59
2023-05-08T17:50:43.538Z,101033.03
2023-05-08T17:53:46.660Z,101042.03
2023-05-08T17:56:49.496Z,101054.00
2023-05-08T17:59:52.424Z,101054.72
2023-05-08T18:02:55.202Z,101049.34
2023-05-08T18:05:58.548Z,101060.25
2023-05-08T18:09:02.446Z,101065.41
2023-05-08T18:12:06.297Z,101071.37
2023-05-08T18:15:09.433Z,101085.84
2023-05-08T18:18:12.393Z,101092.00
2023-05-08T18:21:15.315Z,101094.81
2023-05-08T18:24:18.794Z,101093.53
2023-05-08T18:27:21.541Z,101090.94
2023-05-08T18:30:25.136Z,101092.72
2023-05-08T18:33:28.914Z,101097.59
2023-05-08T18:36:32.243Z,101108.59
2023-05-08T18:39:34.970Z,101105.94
2023-05-08T18:42:37.885Z,101115.25
2023-05-08T18:45:41.838Z,101124.06
2023-05-08T18:48:45.180Z,101129.19
2023-05-08T18:51:47.941Z,101121.94
2023-05-08T18:54:51.087Z,101133.81
2023-05-08T18:57:54.745Z,101141.41
2023-05-08T19:00:59.069Z,101144.53
2023-05-08T19:04:04.311Z,101143.62
2023-05-08T19:07:07.428Z,101150.75
2023-05-08T19:10:10.360Z,101146.84
2023-05-08T19:13:13.604Z,101148.19
2023-05-08T19:16:16.634Z,101147.31
2023-05-08T19:19:20.138Z,101152.97
2023-05-08T19:22:23.228Z,101142.88
2023-05-08T19:25:26.623Z,101159.81
2023-05-08T19:28:29.336Z,101154.19
2023-05-08T19:31:32.678Z,101160.56
2023-05-08T19:34:37.156Z,101164.06
2023-05-08T19:37:40.463Z,101166.72
2023-05-08T19:40:55.660Z,101174.16
2023-05-08T19:43:59.837Z,101176.50
2023-05-08T19:47:03.910Z,101169.06
2023-05-08T19:50:08.047Z,101167.03
2023-05-08T19:53:11.028Z,101172.03
2023-05-08T19:56:14.600Z,101184.38
2023-05-08T19:59:17.457Z,101183.38
2023-05-08T20:02:21.461Z,101167.00
2023-05-08T20:05:24.549Z,101182.47
2023-05-08T20:08:27.271Z,101178.50
2023-05-08T20:11:30.503Z,101176.28
2023-05-08T20:14:34.665Z,101166.88
2023-05-08T20:17:37.803Z,101173.69
2023-05-08T20:20:40.475Z,101175.38
2023-05-08T20:23:43.919Z,101176.00
2023-05-08T20:26:46.826Z,101174.84
2023-05-08T20:29:49.770Z,101176.09
2023-05-08T20:32:52.389Z,101168.91
2023-05-08T20:35:55.688Z,101185.78
2023-05-08T20:38:58.409Z,101185.09
2023-05-08T20:42:01.278Z,101185.38
2023-05-08T20:45:04.354Z,101185.19
2023-05-08T20:48:07.454Z,101189.25
2023-05-08T20:51:10.215Z,101194.38
2023-05-08T20:54:13.364Z,101188.84
2023-05-08T20:57:17.924Z,101188.16
2023-05-08T21:00:21.538Z,101190.16
2023-05-08T21:03:24.237Z,101191.94
2023-05-08T21:06:27.249Z,101188.12
2023-05-08T21:09:29.851Z,101191.62
2023-05-08T21:12:32.783Z,101190.06
2023-05-08T21:15:35.550Z,101190.28
2023-05-08T21:18:38.560Z,101185.41
2023-05-08T21:21:41.256Z,101190.69
2023-05-08T21:24:44.556Z,101194.13
2023-05-08T21:27:47.192Z,101186.63
2023-05-08T21:30:50.085Z,101182.13
2023-05-08T21:33:53.020Z,101187.56
2023-05-08T21:36:56.067Z,101183.88
2023-05-08T21:39:58.853Z,101182.56
2023-05-08T21:43:01.714Z,101185.13
2023-05-08T21:46:09.194Z,101173.44
2023-05-08T21:49:12.274Z,101174.12
2023-05-08T21:52:14.976Z,101172.56
2023-05-08T21:55:17.883Z,101165.69
2023-05-08T21:58:20.730Z,101168.09
2023-05-08T22:01:23.746Z,101166.41
2023-05-08T22:04:26.660Z,101163.63
2023-05-08T22:07:29.292Z,101172.31
2023-05-08T22:10:32.234Z,101162.87
2023-05-08T22:13:34.875Z,101164.66
2023-05-08T22:16:38.240Z,101161.72
2023-05-08T22:19:41.014Z,101155.78
2023-05-08T22:22:43.890Z,101154.75
2023-05-08T22:25:46.651Z,101141.78
2023-05-08T22:28:50.007Z,101145.81
2023-05-08T22:31:52.719Z,101140.03
2023-05-08T22:34:55.939Z,101149.97
2023-05-08T22:37:58.581Z,101139.59
2023-05-08T22:41:02.921Z,101131.59
2023-05-08T22:44:06.405Z,101131.66
2023-05-08T22:47:10.718Z,101137.50
2023-05-08T22:50:13.793Z,101138.97
2023-05-08T22:53:18.525Z,101135.19
2023-05-08T22:56:21.266Z,101145.31
2023-05-08T22:59:25.706Z,101139.34
2023-05-08T23:02:33.244Z,101135.72
2023-05-08T23:05:36.317Z,101134.16
2023-05-08T23:08:38.905Z,101135.22
2023-05-08T23:11:41.925Z,101116.38
2023-05-08T23:14:44.483Z,101119.53
2023-05-08T23:17:47.545Z,101126.22
2023-05-08T23:20:50.396Z,101122.28
2023-05-08T23:23:54.343Z,101129.06
2023-05-08T23:26:56.997Z,101121.81
2023-05-08T23:29:59.894Z,101109.22
2023-05-08T23:33:02.652Z,101114.78
2023-05-08T23:36:06.292Z,101115.50
2023-05-08T23:39:08.869Z,101109.84
2023-05-08T23:42:12.811Z,101112.78
2023-05-08T23:45:15.775Z,101086.94
2023-05-08T23:48:18.882Z,101096.59
2023-05-08T23:51:21.694Z,101112.50
2023-05-08T23:54:25.744Z,101105.47
2023-05-08T23:57:28.433Z,101104.28
